Time;durP1;ratioP1;P1;durP2;ratioP2;P2;SDS_P1;SDS_P2;PMS_P1;PMS_P2;Temp;Humidity;BMP_temperature;BMP_pressure;BME280_temperature;BME280_humidity;BME280_pressure;Samples;Min_cycle;Max_cycle;Signal;HPM_P1;HPM_P2
2023/04/09 00:01:05;;;;;;;2.55;1.63;;;;;;;2.38;54.68;99617.25;4918092;28;22585;-55
2023/04/09 00:03:36;;;;;;;3.05;1.15;;;;;;;2.61;53.77;99624.28;4904225;28;20648;-55
2023/04/09 00:06:07;;;;;;;2.05;1.27;;;;;;;2.65;56.07;99611.41;4920838;28;20871;-54
2023/04/09 00:08:38;;;;;;;4.20;1.35;;;;;;;2.88;54.94;99619.25;4918130;28;20058;-56
2023/04/09 00:11:09;;;;;;;1.55;1.10;;;;;;;2.94;53.61;99624.41;4919237;28;20052;-55
2023/04/09 00:13:39;;;;;;;1.83;1.23;;;;;;;3.16;55.13;99621.94;4917852;28;20052;-55
2023/04/09 00:16:11;;;;;;;5.10;1.35;;;;;;;3.27;52.91;99638.34;4918792;28;20056;-55
2023/04/09 00:18:42;;;;;;;1.63;1.20;;;;;;;2.83;53.01;99622.66;4918541;28;20052;-55
2023/04/09 00:21:13;;;;;;;3.35;1.48;;;;;;;3.08;53.87;99615.91;4917557;28;20047;-55
2023/04/09 00:23:44;;;;;;;1.33;1.00;;;;;;;3.07;52.99;99625.34;4918112;28;20056;-55
2023/04/09 00:26:15;;;;;;;2.88;1.55;;;;;;;3.28;52.87;99614.22;4919212;28;20048;-55
2023/04/09 00:28:45;;;;;;;2.22;1.40;;;;;;;3.48;52.86;99621.16;4916710;28;20061;-52
2023/04/09 00:31:17;;;;;;;1.98;1.10;;;;;;;3.64;51.12;99617.72;4923532;28;20053;-52
2023/04/09 00:33:49;;;;;;;3.03;1.33;;;;;;;3.68;51.77;99615.16;4918399;28;20045;-54
2023/04/09 00:36:20;;;;;;;2.35;1.30;;;;;;;3.42;50.60;99602.22;4917832;28;20048;-57
2023/04/09 00:38:52;;;;;;;2.42;1.38;;;;;;;3.55;51.33;99607.41;4918324;28;20058;-53
2023/04/09 00:41:23;;;;;;;3.33;1.20;;;;;;;3.60;50.57;99610.84;4918928;28;20044;-53
2023/04/09 00:43:56;;;;;;;2.70;1.10;;;;;;;3.58;49.47;99597.06;4917477;28;20142;-54
2023/04/09 00:46:28;;;;;;;1.55;1.10;;;;;;;3.52;50.37;99607.38;4909608;28;20061;-53
2023/04/09 00:48:59;;;;;;;3.50;1.50;;;;;;;3.42;51.36;99576.38;4917686;28;20060;-53
2023/04/09 00:51:31;;;;;;;2.03;1.50;;;;;;;3.83;50.67;99608.28;4917472;28;20147;-55
2023/04/09 00:54:02;;;;;;;3.17;1.45;;;;;;;3.88;50.80;99581.56;4917905;28;20056;-55
2023/04/09 00:56:33;;;;;;;2.88;1.10;;;;;;;3.93;50.80;99593.66;4917564;28;20074;-53
2023/04/09 00:59:04;;;;;;;2.33;1.38;;;;;;;4.07;49.81;99592.78;4918306;28;20462;-55
2023/04/09 01:01:36;;;;;;;2.72;1.20;;;;;;;4.05;50.66;99588.47;4916978;28;20515;-54
2023/04/09 01:04:07;;;;;;;2.97;1.40;;;;;;;3.79;50.73;99591.91;4909842;28;20057;-54
2023/04/09 01:06:49;;;;;;;2.67;1.10;;;;;;;3.68;52.62;99579.00;4916981;28;20060;-53
2023/04/09 01:09:27;;;;;;;2.88;1.27;;;;;;;3.56;51.86;99567.78;4908138;28;20470;-55
2023/04/09 01:12:09;;;;;;;1.85;1.40;;;;;;;3.84;52.70;99577.28;4907925;28;20056;-54
2023/04/09 01:14:46;;;;;;;4.78;1.42;;;;;;;3.64;51.87;99581.56;4906716;28;20061;-55
2023/04/09 01:17:32;;;;;;;0.98;0.90;;;;;;;3.23;53.20;99564.31;4910470;28;20100;-55
2023/04/09 01:20:09;;;;;;;2.58;1.55;;;;;;;3.29;53.75;99574.63;4907151;28;20082;-55
2023/04/09 01:22:56;;;;;;;2.15;1.33;;;;;;;3.30;52.80;99578.09;4906538;28;20068;-55
2023/04/09 01:25:42;;;;;;;2.15;1.13;;;;;;;3.15;52.67;99577.19;4906484;28;20047;-53
2023/04/09 01:28:20;;;;;;;3.20;1.30;;;;;;;3.62;51.73;99567.78;4907095;28;20052;-54
2023/04/09 01:30:53;;;;;;;2.97;1.30;;;;;;;4.02;52.59;99567.78;4907134;28;20057;-55
2023/04/09 01:33:25;;;;;;;1.88;1.33;;;;;;;4.54;49.99;99562.50;4916341;28;20924;-53
2023/04/09 01:35:57;;;;;;;3.45;1.33;;;;;;;4.45;51.77;99563.41;4911925;28;20124;-54
2023/04/09 01:38:29;;;;;;;4.30;1.30;;;;;;;4.42;51.33;99552.19;4916621;28;20113;-54
2023/04/09 01:41:02;;;;;;;3.80;1.23;;;;;;;4.28;50.60;99553.09;4917166;28;20064;-55
2023/04/09 01:43:35;;;;;;;1.48;1.25;;;;;;;4.18;51.20;99569.47;4916546;28;20055;-54
2023/04/09 01:46:05;;;;;;;1.95;1.15;;;;;;;4.27;49.62;99559.13;4914464;28;20133;-56
2023/04/09 01:48:37;;;;;;;4.40;1.27;;;;;;;4.32;50.97;99557.41;4921429;28;20053;-53
2023/04/09 01:51:07;;;;;;;3.00;1.33;;;;;;;4.44;50.03;99560.81;4916892;28;20048;-55
2023/04/09 01:53:38;;;;;;;5.55;1.58;;;;;;;4.12;49.72;99546.25;4917282;28;20080;-54
2023/04/09 01:56:09;;;;;;;5.60;1.40;;;;;;;3.76;50.85;99545.41;4917746;28;20052;-55
2023/04/09 01:58:47;;;;;;;1.85;1.20;;;;;;;3.74;50.63;99541.94;4915585;28;20078;-55
2023/04/09 02:01:37;;;;;;;4.88;1.45;;;;;;;3.82;51.23;99529.00;4905648;28;20056;-55
2023/04/09 02:04:15;;;;;;;2.75;1.13;;;;;;;3.57;49.38;99525.59;4905937;28;20110;-55
2023/04/09 02:06:54;;;;;;;2.67;1.20;;;;;;;3.59;49.53;99536.78;4908913;28;20056;-55
2023/04/09 02:09:30;;;;;;;1.25;1.08;;;;;;;3.83;49.53;99536.78;4913288;28;20049;-55
2023/04/09 02:12:06;;;;;;;2.05;1.48;;;;;;;4.07;49.17;99529.88;4916380;28;20299;-54
2023/04/09 02:14:41;;;;;;;2.42;1.52;;;;;;;4.30;48.61;99527.22;4906029;28;20180;-56
2023/04/09 02:17:13;;;;;;;1.10;1.05;;;;;;;4.51;47.54;99527.13;4916992;28;20210;-55
2023/04/09 02:19:46;;;;;;;1.30;1.17;;;;;;;4.82;48.39;99526.16;4916271;28;20044;-54
2023/04/09 02:22:18;;;;;;;2.33;1.10;;;;;;;4.49;46.01;99478.88;4906232;28;20044;-54
2023/04/09 02:24:49;;;;;;;1.48;1.10;;;;;;;4.03;46.39;99491.97;4916997;28;20466;-55
2023/04/09 02:27:20;;;;;;;2.45;1.10;;;;;;;3.71;48.59;99515.25;4916659;28;20041;-56
2023/04/09 02:29:52;;;;;;;1.88;1.10;;;;;;;3.63;48.74;99528.19;4916657;28;21276;-56
2023/04/09 02:32:23;;;;;;;1.13;1.00;;;;;;;4.10;48.84;99509.19;4916863;28;20048;-57
2023/04/09 02:34:53;;;;;;;1.73;1.10;;;;;;;4.46;47.64;99502.16;4916437;28;20049;-55
2023/04/09 02:37:24;;;;;;;3.72;1.20;;;;;;;4.63;45.95;99515.91;4915685;28;20040;-56
2023/04/09 02:39:54;;;;;;;2.10;1.13;;;;;;;4.54;45.34;99505.56;4916350;28;20454;-56
2023/04/09 02:42:25;;;;;;;2.42;1.05;;;;;;;4.36;46.23;99508.25;4915321;28;20060;-55
2023/04/09 02:44:57;;;;;;;2.35;1.15;;;;;;;4.62;47.15;99503.84;4923379;28;20448;-55
2023/04/09 02:47:29;;;;;;;1.02;0.93;;;;;;;4.62;46.01;99498.66;4916478;28;20032;-56
2023/04/09 02:49:59;;;;;;;1.27;1.00;;;;;;;4.29;47.50;99509.97;4917515;28;20067;-55
2023/04/09 02:52:30;;;;;;;2.15;1.30;;;;;;;4.04;48.51;99511.75;4916403;28;20083;-56
2023/04/09 02:55:01;;;;;;;3.53;1.20;;;;;;;4.06;50.09;99468.69;4915797;28;20063;-56
2023/04/09 02:57:32;;;;;;;1.88;1.10;;;;;;;4.61;49.69;99498.66;4916376;28;20155;-56
2023/04/09 03:00:04;;;;;;;2.22;1.40;;;;;;;4.65;48.28;99492.63;4916221;28;20752;-57
2023/04/09 03:02:35;;;;;;;3.15;1.42;;;;;;;4.70;50.94;99502.06;4914024;28;20041;-57
2023/04/09 03:05:06;;;;;;;4.45;1.30;;;;;;;4.38;47.91;99498.75;4923340;28;20507;-57
2023/04/09 03:07:37;;;;;;;1.27;0.85;;;;;;;4.03;48.92;99502.31;4916394;28;20052;-57
2023/04/09 03:10:08;;;;;;;2.67;1.63;;;;;;;3.83;49.39;99516.09;4916668;28;20109;-56
2023/04/09 03:12:39;;;;;;;2.95;1.55;;;;;;;3.85;50.21;99504.06;4916109;28;20051;-57
2023/04/09 03:15:12;;;;;;;1.40;1.05;;;;;;;3.82;50.71;99498.91;4915290;28;20040;-57
2023/04/09 03:17:42;;;;;;;3.08;1.30;;;;;;;3.95;51.08;99498.88;4916223;28;20056;-57
2023/04/09 03:20:14;;;;;;;8.57;1.40;;;;;;;3.83;50.45;99495.44;4916239;28;20052;-57
2023/04/09 03:22:44;;;;;;;4.75;1.27;;;;;;;3.54;50.59;99515.25;4915852;28;20080;-57
2023/04/09 03:25:14;;;;;;;2.80;1.25;;;;;;;3.41;50.10;99517.84;4915681;28;20044;-58
2023/04/09 03:27:45;;;;;;;4.22;1.42;;;;;;;3.78;51.78;99507.50;4915377;28;20452;-57
2023/04/09 03:30:17;;;;;;;3.13;1.30;;;;;;;4.25;50.52;99498.78;4926662;28;20117;-57
2023/04/09 03:32:47;;;;;;;1.60;1.10;;;;;;;4.28;49.64;99519.47;4919386;28;20056;-58
2023/04/09 03:35:18;;;;;;;1.48;1.00;;;;;;;4.19;50.07;99514.31;4920268;28;20044;-58
2023/04/09 03:37:49;;;;;;;1.70;1.20;;;;;;;4.15;50.52;99507.44;4919483;28;20056;-57
2023/04/09 03:40:19;;;;;;;2.38;1.17;;;;;;;4.39;51.15;99516.84;4919098;28;20438;-58
2023/04/09 03:42:50;;;;;;;1.45;0.93;;;;;;;4.02;49.32;99510.91;4919120;28;20063;-57
2023/04/09 03:45:22;;;;;;;3.42;1.20;;;;;;;4.26;52.15;99510.84;4918906;28;20071;-58
2023/04/09 03:47:52;;;;;;;1.35;1.10;;;;;;;4.23;49.39;99464.31;4919066;28;20055;-58
2023/04/09 03:50:26;;;;;;;3.28;1.10;;;;;;;4.44;49.65;99524.59;4914606;28;20061;-58
2023/04/09 03:52:57;;;;;;;2.20;1.25;;;;;;;4.43;50.67;99522.88;4921919;28;20052;-57
2023/04/09 03:55:27;;;;;;;3.15;1.10;;;;;;;4.33;48.89;99507.38;4918822;28;20134;-57
2023/04/09 03:57:57;;;;;;;1.63;1.23;;;;;;;4.41;49.94;99514.25;4919061;28;20044;-57
2023/04/09 04:00:33;;;;;;;3.67;0.90;;;;;;;4.44;49.28;99519.41;4918592;28;20055;-58
2023/04/09 04:03:04;;;;;;;4.53;1.10;;;;;;;4.52;49.91;99517.69;4918303;28;20064;-57
2023/04/09 04:05:35;;;;;;;2.15;1.17;;;;;;;4.62;49.37;99509.00;4918755;28;20052;-58
2023/04/09 04:08:06;;;;;;;2.85;1.13;;;;;;;4.51;48.46;99521.97;4916742;28;20067;-57
2023/04/09 04:10:36;;;;;;;1.60;1.20;;;;;;;4.56;48.48;99514.19;4922804;28;20057;-58
2023/04/09 04:13:08;;;;;;;2.72;1.00;;;;;;;4.06;47.45;99491.94;4919134;28;20056;-58
2023/04/09 04:15:44;;;;;;;1.25;0.90;;;;;;;4.33;48.01;99522.91;4918374;28;20864;-58
2023/04/09 04:18:15;;;;;;;2.58;1.02;;;;;;;4.19;48.33;99516.03;4918147;28;20139;-57
2023/04/09 04:20:47;;;;;;;1.77;0.98;;;;;;;4.21;48.14;99517.75;4911649;28;20073;-57
2023/04/09 04:23:20;;;;;;;1.63;1.00;;;;;;;4.25;48.09;99519.47;4918556;28;20047;-57
2023/04/09 04:25:52;;;;;;;1.88;1.00;;;;;;;4.33;49.45;99527.22;4918668;28;20059;-55
2023/04/09 04:28:25;;;;;;;3.20;1.02;;;;;;;4.43;46.99;99538.41;4918561;28;20044;-57
2023/04/09 04:30:58;;;;;;;2.00;1.00;;;;;;;4.25;47.49;99535.00;4914144;28;20715;-58
2023/04/09 04:33:31;;;;;;;1.23;0.90;;;;;;;4.23;48.73;99516.03;4918532;28;20052;-58
2023/04/09 04:36:09;;;;;;;5.05;1.10;;;;;;;4.58;50.49;99528.00;4917828;28;20482;-58
2023/04/09 04:38:43;;;;;;;1.35;0.90;;;;;;;4.49;49.38;99522.84;4908039;28;20066;-58
2023/04/09 04:41:14;;;;;;;1.52;1.25;;;;;;;4.61;50.55;99527.97;4917933;28;20062;-58
2023/04/09 04:43:48;;;;;;;1.35;1.23;;;;;;;4.57;47.64;99531.47;4914629;28;20072;-57
2023/04/09 04:46:22;;;;;;;2.90;1.30;;;;;;;4.58;49.23;99524.56;4918043;28;20109;-57
2023/04/09 04:48:54;;;;;;;3.92;1.25;;;;;;;4.44;48.83;99540.09;4917433;28;20048;-57
2023/04/09 04:51:27;;;;;;;1.25;0.93;;;;;;;4.32;48.50;99528.94;4914134;28;20611;-58
2023/04/09 04:53:59;;;;;;;2.47;1.20;;;;;;;4.42;48.67;99526.31;4917136;28;20056;-58
2023/04/09 04:56:31;;;;;;;1.75;1.13;;;;;;;4.29;47.94;99510.84;4917676;28;20496;-57
2023/04/09 04:59:05;;;;;;;1.35;1.17;;;;;;;4.21;47.12;99522.94;4918035;28;20051;-58
2023/04/09 05:01:39;;;;;;;6.55;1.13;;;;;;;4.21;48.85;99528.09;4912403;28;20046;-58
2023/04/09 05:04:11;;;;;;;7.88;1.40;;;;;;;4.47;48.41;99515.09;4916802;28;20047;-58
2023/04/09 05:06:43;;;;;;;1.95;1.20;;;;;;;4.54;46.35;99536.63;4916408;28;20053;-58
2023/04/09 05:09:15;;;;;;;6.40;1.42;;;;;;;4.50;47.05;99532.34;4917125;28;20171;-59
2023/04/09 05:11:49;;;;;;;12.00;1.58;;;;;;;4.63;47.28;99541.78;4906908;28;20109;-58
2023/04/09 05:14:21;;;;;;;3.15;1.08;;;;;;;4.38;45.53;99501.34;4917961;28;20199;-58
2023/04/09 05:16:55;;;;;;;4.75;2.42;;;;;;;4.43;46.14;99507.34;4916811;28;20044;-58
2023/04/09 05:19:27;;;;;;;4.63;1.70;;;;;;;4.16;44.81;99529.84;4911302;28;20053;-58
2023/04/09 05:21:59;;;;;;;3.13;0.90;;;;;;;4.24;44.71;99533.28;4917336;28;20036;-58
2023/04/09 05:24:31;;;;;;;2.70;0.90;;;;;;;4.12;44.77;99489.34;4917372;28;20048;-57
2023/04/09 05:27:03;;;;;;;1.77;0.93;;;;;;;3.91;43.57;99533.34;4917122;28;20637;-58
2023/04/09 05:29:36;;;;;;;1.60;0.90;;;;;;;4.02;44.33;99547.09;4917245;28;20049;-59
2023/04/09 05:32:10;;;;;;;3.15;0.90;;;;;;;4.03;42.45;99543.66;4906655;28;20063;-58
2023/04/09 05:34:43;;;;;;;1.05;0.85;;;;;;;3.79;41.92;99542.81;4916862;28;20606;-58
2023/04/09 05:37:15;;;;;;;0.80;0.80;;;;;;;3.81;41.83;99543.66;4915465;28;20470;-58
2023/04/09 05:39:47;;;;;;;1.33;1.00;;;;;;;3.94;42.86;99543.66;4910415;28;20076;-57
2023/04/09 05:42:19;;;;;;;2.85;1.10;;;;;;;3.94;43.76;99528.16;4917748;28;20051;-58
2023/04/09 05:44:51;;;;;;;1.45;0.90;;;;;;;3.92;42.22;99537.63;4916913;28;20142;-58
2023/04/09 05:47:26;;;;;;;3.53;0.90;;;;;;;3.97;43.58;99533.31;4916884;28;20086;-58
2023/04/09 05:49:58;;;;;;;1.00;0.90;;;;;;;3.79;42.76;99545.38;4906354;28;20323;-58
2023/04/09 05:52:30;;;;;;;1.58;0.90;;;;;;;3.76;43.32;99529.88;4916094;28;20048;-58
2023/04/09 05:55:05;;;;;;;0.80;0.80;;;;;;;3.72;43.37;99533.34;4916904;28;20044;-57
2023/04/09 05:57:37;;;;;;;2.72;1.00;;;;;;;3.67;42.79;99525.59;4913592;28;20053;-58
2023/04/09 06:00:10;;;;;;;2.58;1.20;;;;;;;3.63;42.67;99538.53;4916682;28;20121;-57
2023/04/09 06:02:43;;;;;;;1.92;1.02;;;;;;;3.66;43.37;99526.44;4917617;28;20055;-57
2023/04/09 06:05:16;;;;;;;5.55;1.17;;;;;;;3.62;43.38;99536.78;4916635;28;20067;-58
2023/04/09 06:07:48;;;;;;;1.48;0.82;;;;;;;3.52;42.65;99545.38;4906724;28;20049;-58
2023/04/09 06:10:21;;;;;;;4.20;1.20;;;;;;;3.58;43.25;99540.25;4916851;28;20048;-58
2023/04/09 06:12:53;;;;;;;2.00;1.05;;;;;;;3.68;43.15;99541.97;4915976;28;20048;-57
2023/04/09 06:15:24;;;;;;;2.72;0.93;;;;;;;3.75;44.27;99535.94;4915352;28;20110;-58
2023/04/09 06:17:59;;;;;;;1.55;1.00;;;;;;;3.96;42.84;99536.78;4912918;28;20061;-56
2023/04/09 06:20:30;;;;;;;1.33;1.00;;;;;;;4.08;43.71;99536.75;4915769;28;20098;-58
2023/04/09 06:23:03;;;;;;;1.70;1.05;;;;;;;3.98;43.74;99535.06;4916643;28;20135;-57
2023/04/09 06:25:36;;;;;;;3.55;1.10;;;;;;;3.49;43.27;99467.91;4915813;28;20466;-57
2023/04/09 06:28:08;;;;;;;1.67;1.10;;;;;;;3.97;42.91;99538.47;4906900;28;20048;-57
2023/04/09 06:30:40;;;;;;;1.40;1.00;;;;;;;3.42;41.58;99452.44;4916162;28;21505;-57
2023/04/09 06:33:14;;;;;;;0.80;0.80;;;;;;;3.96;42.75;99527.28;4916468;28;20067;-57
2023/04/09 06:35:46;;;;;;;2.65;1.10;;;;;;;3.87;43.36;99517.84;4916050;28;20838;-57
2023/04/09 06:38:19;;;;;;;1.25;1.02;;;;;;;3.76;43.62;99488.53;4916996;28;20048;-57
2023/04/09 06:40:51;;;;;;;0.93;0.90;;;;;;;3.99;42.68;99511.75;4916403;28;20052;-57
2023/04/09 06:43:23;;;;;;;1.30;1.00;;;;;;;4.00;42.40;99517.81;4916003;28;20055;-53
2023/04/09 06:45:55;;;;;;;1.67;1.10;;;;;;;4.10;42.20;99527.28;4916066;28;20079;-56
2023/04/09 06:48:30;;;;;;;2.15;1.00;;;;;;;4.17;43.46;99516.06;4908098;28;20463;-56
2023/04/09 06:51:02;;;;;;;3.35;1.20;;;;;;;4.18;43.40;99522.94;4915770;28;20052;-56
2023/04/09 06:53:34;;;;;;;1.00;0.85;;;;;;;3.94;42.76;99504.88;4915642;28;20061;-57
2023/04/09 06:56:06;;;;;;;2.50;1.00;;;;;;;3.86;43.09;99531.59;4914555;28;20060;-57
2023/04/09 06:58:39;;;;;;;1.98;1.10;;;;;;;3.90;42.86;99532.47;4915900;28;20185;-57
2023/04/09 07:01:17;;;;;;;1.23;1.05;;;;;;;3.83;43.96;99531.63;4916225;28;20143;-56
2023/04/09 07:03:54;;;;;;;4.38;2.10;;;;;;;3.89;42.95;99530.75;4905458;28;20048;-56
2023/04/09 07:06:25;;;;;;;2.45;1.15;;;;;;;3.86;41.71;99535.91;4917770;28;20061;-56
2023/04/09 07:08:56;;;;;;;2.38;1.15;;;;;;;3.82;42.66;99544.53;4926319;28;20060;-56
2023/04/09 07:11:26;;;;;;;11.13;1.48;;;;;;;3.69;42.63;99543.66;4924351;28;20138;-56
2023/04/09 07:13:56;;;;;;;1.25;1.15;;;;;;;3.70;42.29;99541.97;4920742;28;20061;-56
2023/04/09 07:16:27;;;;;;;3.80;1.20;;;;;;;3.67;43.19;99550.59;4919875;28;20062;-56
2023/04/09 07:18:59;;;;;;;2.50;1.13;;;;;;;3.67;43.43;99553.16;4919550;28;20129;-56
2023/04/09 07:21:30;;;;;;;1.13;1.00;;;;;;;3.63;44.01;99548.84;4919138;28;20071;-56
2023/04/09 07:24:00;;;;;;;2.08;1.02;;;;;;;3.64;43.30;99555.72;4919468;28;20044;-56
2023/04/09 07:26:31;;;;;;;4.75;1.00;;;;;;;3.67;43.66;99558.34;4919960;28;20596;-54
2023/04/09 07:29:02;;;;;;;2.70;1.00;;;;;;;3.62;42.63;99550.59;4919549;28;20048;-56
2023/04/09 07:31:33;;;;;;;3.85;1.13;;;;;;;3.59;43.38;99567.78;4918978;28;20473;-55
2023/04/09 07:34:06;;;;;;;2.17;0.80;;;;;;;3.48;42.88;99569.50;4919256;28;20472;-56
2023/04/09 07:36:36;;;;;;;4.57;1.05;;;;;;;3.41;42.28;99559.16;4913944;28;20057;-56
2023/04/09 07:39:06;;;;;;;2.53;0.93;;;;;;;3.45;43.51;99581.56;4921966;28;20076;-56
2023/04/09 07:41:37;;;;;;;3.03;1.30;;;;;;;3.50;43.53;99583.28;4919281;28;20795;-55
2023/04/09 07:44:08;;;;;;;2.10;1.00;;;;;;;3.59;44.36;99588.44;4919067;28;20052;-55
2023/04/09 07:46:39;;;;;;;1.45;0.90;;;;;;;3.56;44.91;99591.03;4918950;28;20482;-56
2023/04/09 07:49:11;;;;;;;3.60;0.85;;;;;;;3.44;44.85;99599.63;4916745;28;20531;-57
2023/04/09 07:51:41;;;;;;;1.50;0.98;;;;;;;3.32;45.14;99595.31;4918504;28;20125;-56
2023/04/09 07:54:12;;;;;;;2.22;0.93;;;;;;;3.28;44.31;99597.88;4918443;28;20048;-56
2023/04/09 07:56:42;;;;;;;1.98;1.15;;;;;;;3.34;45.16;99609.06;4918190;28;20056;-57
2023/04/09 07:59:14;;;;;;;4.32;1.27;;;;;;;3.37;44.94;99608.22;4919206;28;20048;-56
2023/04/09 08:01:44;;;;;;;1.77;1.10;;;;;;;3.22;44.69;99609.03;4918541;28;20063;-57
2023/04/09 08:04:16;;;;;;;2.97;1.00;;;;;;;3.19;44.92;99621.94;4916439;28;20147;-56
2023/04/09 08:06:49;;;;;;;4.53;1.10;;;;;;;3.16;45.05;99627.09;4918159;28;20105;-56
2023/04/09 08:09:20;;;;;;;3.00;1.00;;;;;;;3.06;45.59;99630.50;4918285;28;20133;-56
2023/04/09 08:11:52;;;;;;;1.00;0.90;;;;;;;2.76;45.33;99593.38;4919103;28;20056;-56
2023/04/09 08:14:22;;;;;;;1.73;1.10;;;;;;;2.81;45.84;99622.66;4918381;28;20064;-56
2023/04/09 08:16:53;;;;;;;1.45;1.00;;;;;;;2.92;46.48;99639.06;4918344;28;20048;-56
2023/04/09 08:19:25;;;;;;;1.63;0.90;;;;;;;2.80;46.46;99639.00;4917965;28;20048;-56
2023/04/09 08:21:55;;;;;;;2.08;1.10;;;;;;;2.87;47.30;99643.34;4914136;28;20110;-56
2023/04/09 08:24:26;;;;;;;2.15;1.30;;;;;;;2.77;45.76;99646.69;4922729;28;20088;-54
2023/04/09 08:26:57;;;;;;;1.00;0.90;;;;;;;2.68;45.79;99646.66;4920233;28;21424;-55
2023/04/09 08:29:28;;;;;;;2.33;1.05;;;;;;;2.58;46.53;99651.75;4918443;28;20051;-56
2023/04/09 08:31:59;;;;;;;2.72;1.15;;;;;;;2.50;46.52;99648.28;4918962;28;20044;-56
2023/04/09 08:34:31;;;;;;;2.47;0.93;;;;;;;2.44;46.65;99648.22;4918222;28;20051;-56
2023/04/09 08:37:01;;;;;;;1.10;0.80;;;;;;;2.36;46.42;99655.91;4918474;28;20063;-56
2023/04/09 08:39:32;;;;;;;2.00;0.85;;;;;;;2.24;46.53;99667.84;4916507;28;20053;-56
2023/04/09 08:42:03;;;;;;;1.33;0.93;;;;;;;2.14;47.54;99675.50;4918028;28;20060;-56
2023/04/09 08:44:33;;;;;;;8.00;1.25;;;;;;;2.08;47.49;99662.59;4917609;28;20051;-56
2023/04/09 08:47:08;;;;;;;1.85;1.10;;;;;;;1.98;47.23;99673.66;4918512;28;20071;-56
2023/04/09 08:49:42;;;;;;;5.72;1.40;;;;;;;1.96;47.97;99685.66;4905709;28;20167;-56
2023/04/09 08:52:15;;;;;;;5.65;1.33;;;;;;;1.88;48.05;99666.72;4917674;28;20055;-56
2023/04/09 08:54:45;;;;;;;3.53;1.30;;;;;;;1.77;48.86;99673.47;4915862;28;20526;-55
2023/04/09 08:57:16;;;;;;;1.50;1.23;;;;;;;1.42;48.75;99640.47;4924241;28;20102;-56
2023/04/09 08:59:46;;;;;;;3.20;1.20;;;;;;;1.57;49.24;99681.84;4920197;28;20057;-55
2023/04/09 09:02:20;;;;;;;4.50;1.13;;;;;;;1.54;49.38;99681.81;4917367;28;20156;-56
2023/04/09 09:04:59;;;;;;;4.90;1.35;;;;;;;1.49;49.77;99693.78;4917331;28;20044;-56
2023/04/09 09:07:30;;;;;;;4.18;1.15;;;;;;;1.33;50.42;99686.75;4906902;28;20422;-56
2023/04/09 09:10:03;;;;;;;2.88;1.30;;;;;;;1.30;50.02;99697.88;4917013;28;20482;-56
2023/04/09 09:12:36;;;;;;;2.22;1.17;;;;;;;1.28;50.36;99700.41;4927916;28;20064;-56
2023/04/09 09:15:25;;;;;;;2.13;1.17;;;;;;;1.12;50.34;99683.03;4907238;28;20116;-56
2023/04/09 09:17:57;;;;;;;2.13;1.33;;;;;;;1.16;50.38;99710.53;4903109;28;20057;-55
2023/04/09 09:20:29;;;;;;;1.50;1.10;;;;;;;1.13;51.07;99705.38;4918136;28;21513;-56
2023/04/09 09:23:00;;;;;;;3.50;1.40;;;;;;;0.85;50.91;99669.00;4917343;28;20049;-56
2023/04/09 09:25:30;;;;;;;6.18;1.52;;;;;;;0.90;52.76;99681.03;4917108;28;20064;-55
2023/04/09 09:28:09;;;;;;;3.15;1.70;;;;;;;1.11;52.05;99732.78;4916809;28;20048;-56
2023/04/09 09:30:41;;;;;;;3.00;1.50;;;;;;;1.17;53.25;99732.84;4906109;28;20067;-56
2023/04/09 09:33:13;;;;;;;2.13;1.38;;;;;;;1.12;53.58;99739.66;4908688;28;20048;-55
2023/04/09 09:36:02;;;;;;;5.65;2.83;;;;;;;0.51;55.08;99653.94;4908289;28;20056;-56
2023/04/09 09:38:51;;;;;;;6.13;3.03;;;;;;;0.90;54.81;99737.63;4898992;28;20052;-56
2023/04/09 09:41:27;;;;;;;5.03;2.90;;;;;;;0.83;55.59;99765.84;4888323;28;20056;-56
2023/04/09 09:43:58;;;;;;;6.80;3.17;;;;;;;0.80;56.50;99757.19;4909076;28;20048;-56
2023/04/09 09:46:37;;;;;;;33.55;10.15;;;;;;;0.73;55.83;99758.84;4908548;28;20684;-56
2023/04/09 09:49:08;;;;;;;48.15;15.30;;;;;;;0.68;56.42;99773.31;4899203;28;20056;-55
2023/04/09 09:51:42;;;;;;;53.88;16.05;;;;;;;0.54;56.69;99769.66;4909119;28;20082;-56
2023/04/09 09:54:17;;;;;;;23.92;9.35;;;;;;;0.46;57.07;99771.25;4908419;28;20049;-56
2023/04/09 09:56:50;;;;;;;6.93;3.05;;;;;;;0.30;56.60;99776.16;4897735;28;20109;-56
2023/04/09 09:59:27;;;;;;;8.25;2.28;;;;;;;0.12;57.07;99768.09;4908581;28;20045;-56
2023/04/09 10:02:07;;;;;;;6.72;2.22;;;;;;;0.04;58.28;99782.50;4898069;28;20055;-56
2023/04/09 10:04:38;;;;;;;3.30;1.85;;;;;;;0.07;58.11;99797.97;4898683;28;20052;-56
2023/04/09 10:07:12;;;;;;;2.22;1.52;;;;;;;0.00;58.33;99802.16;4909470;28;20143;-56
2023/04/09 10:09:50;;;;;;;5.90;1.80;;;;;;;-0.09;59.15;99810.53;4908660;28;20059;-56
2023/04/09 10:12:26;;;;;;;1.80;1.52;;;;;;;-0.18;58.71;99797.50;4898085;28;20052;-56
2023/04/09 10:15:03;;;;;;;1.98;1.50;;;;;;;-0.13;58.30;99816.44;4902813;28;20049;-56
2023/04/09 10:17:33;;;;;;;2.40;1.50;;;;;;;-0.16;58.95;99815.53;4908492;28;20067;-56
2023/04/09 10:20:12;;;;;;;2.58;1.50;;;;;;;-0.69;59.08;99752.00;4908400;28;20052;-57
2023/04/09 10:22:46;;;;;;;5.72;1.75;;;;;;;-0.26;58.78;99825.59;4896816;28;20048;-56
2023/04/09 10:25:18;;;;;;;8.18;3.30;;;;;;;-0.31;59.12;99831.47;4893682;28;20052;-56
2023/04/09 10:28:01;;;;;;;4.85;2.42;;;;;;;-0.46;59.84;99827.75;4915392;28;20213;-56
2023/04/09 10:30:38;;;;;;;11.02;4.70;;;;;;;-0.37;59.74;99836.50;4901223;28;20057;-57
2023/04/09 10:33:14;;;;;;;10.02;3.75;;;;;;;-0.52;60.00;99812.25;4897710;28;20093;-56
2023/04/09 10:35:48;;;;;;;6.95;3.90;;;;;;;-0.50;60.08;99831.13;4908016;28;21406;-57
2023/04/09 10:38:36;;;;;;;6.68;2.65;;;;;;;-0.50;60.25;99841.38;4910766;28;20056;-56
2023/04/09 10:41:15;;;;;;;9.88;5.22;;;;;;;-1.02;61.12;99783.78;4904518;28;20049;-56
2023/04/09 10:43:49;;;;;;;6.20;4.15;;;;;;;-0.61;61.11;99850.53;4908500;28;20924;-57
2023/04/09 10:46:30;;;;;;;1.70;1.50;;;;;;;-0.74;61.47;99846.84;4912581;28;20586;-56
2023/04/09 10:49:12;;;;;;;4.65;2.13;;;;;;;-0.81;61.96;99844.09;4901485;28;20756;-57
2023/04/09 10:51:51;;;;;;;4.68;2.63;;;;;;;-0.88;62.63;99859.31;4901665;28;20475;-56
2023/04/09 10:54:48;;;;;;;4.72;2.58;;;;;;;-0.83;63.35;99866.28;4899941;28;20060;-56
2023/04/09 10:57:23;;;;;;;4.00;2.60;;;;;;;-0.98;63.14;99857.38;4891299;28;20402;-57
2023/04/09 10:59:55;;;;;;;4.15;2.50;;;;;;;-1.13;63.38;99839.06;4910913;28;20061;-57
2023/04/09 11:03:03;;;;;;;4.20;3.00;;;;;;;-0.92;63.67;99878.06;4906651;28;20061;-57
2023/04/09 11:05:37;;;;;;;50.80;21.08;;;;;;;-1.02;64.06;99886.38;4911198;28;20155;-57
2023/04/09 11:08:09;;;;;;;24.15;10.48;;;;;;;-1.17;64.21;99870.63;4902686;28;20064;-57
2023/04/09 11:10:43;;;;;;;42.22;16.35;;;;;;;-1.10;64.28;99882.72;4911639;28;20052;-57
2023/04/09 11:13:15;;;;;;;53.88;20.60;;;;;;;-1.57;64.35;99821.78;4921633;28;20079;-56
2023/04/09 11:15:46;;;;;;;22.50;11.13;;;;;;;-1.21;64.86;99897.00;4909545;28;20078;-57
2023/04/09 11:18:20;;;;;;;14.82;7.35;;;;;;;-1.21;64.72;99899.56;4913233;28;20057;-57
2023/04/09 11:20:55;;;;;;;8.57;4.03;;;;;;;-1.77;64.83;99805.91;4910571;28;20135;-57
2023/04/09 11:23:26;;;;;;;7.88;3.75;;;;;;;-0.98;66.36;99908.69;4910565;28;20104;-57
2023/04/09 11:25:58;;;;;;;4.13;2.38;;;;;;;-0.90;66.49;99912.31;4913767;28;20519;-58
2023/04/09 11:28:31;;;;;;;5.65;3.17;;;;;;;-0.80;67.33;99907.38;4913429;28;20056;-57
2023/04/09 11:31:05;;;;;;;10.80;3.50;;;;;;;-0.68;66.67;99912.81;4905226;28;20422;-57
2023/04/09 11:33:36;;;;;;;4.75;2.05;;;;;;;-0.65;66.03;99918.00;4907071;28;20065;-57
2023/04/09 11:36:07;;;;;;;4.78;1.92;;;;;;;-1.23;65.08;99835.41;4915463;28;20089;-56
2023/04/09 11:38:38;;;;;;;3.10;2.25;;;;;;;-0.68;64.95;99923.06;4912010;28;20483;-57
2023/04/09 11:41:12;;;;;;;5.13;2.40;;;;;;;-0.65;66.18;99928.25;4912419;28;20056;-57
2023/04/09 11:43:49;;;;;;;6.25;2.20;;;;;;;-0.69;65.50;99927.34;4911068;28;20063;-57
2023/04/09 11:46:24;;;;;;;6.72;2.25;;;;;;;-0.75;65.55;99934.00;4901094;28;20062;-57
2023/04/09 11:48:57;;;;;;;4.18;2.30;;;;;;;-0.89;65.03;99944.81;4909448;28;21031;-58
2023/04/09 11:51:31;;;;;;;5.18;2.97;;;;;;;-1.03;65.33;99933.34;4910100;28;20246;-57
2023/04/09 11:54:03;;;;;;;4.90;2.40;;;;;;;-0.86;66.35;99944.03;4910976;28;20052;-57
2023/04/09 11:56:41;;;;;;;3.20;2.13;;;;;;;-0.89;66.50;99952.50;4910463;28;20144;-57
2023/04/09 11:59:15;;;;;;;4.65;2.70;;;;;;;-0.94;66.35;99948.97;4900656;28;20068;-57
2023/04/09 12:01:50;;;;;;;2.92;2.40;;;;;;;-0.91;67.19;99961.84;4906048;28;20052;-57
2023/04/09 12:04:21;;;;;;;3.42;2.25;;;;;;;-0.95;67.86;99960.06;4910386;28;20062;-58
2023/04/09 12:06:59;;;;;;;5.63;2.10;;;;;;;-1.04;67.18;99935.88;4910547;28;20048;-58